sensor_id;sensor_type;location;lat;lon;timestamp;pressure;altitude;pressure_sealevel;temperature;humidity
67013;BME280;53926;47.406;19.188;2022-07-29T00:01:49;100239.63;;;23.07;53.08
67013;BME280;53926;47.406;19.188;2022-07-29T00:04:19;100244.66;;;23.09;53.40
67013;BME280;53926;47.406;19.188;2022-07-29T00:06:47;100238.19;;;23.15;53.96
67013;BME280;53926;47.406;19.188;2022-07-29T00:09:13;100246.81;;;23.07;53.60
67013;BME280;53926;47.406;19.188;2022-07-29T00:11:40;100237.84;;;23.02;54.44
67013;BME280;53926;47.406;19.188;2022-07-29T00:14:07;100239.88;;;23.11;53.31
67013;BME280;53926;47.406;19.188;2022-07-29T00:16:34;100240.78;;;23.01;53.61
67013;BME280;53926;47.406;19.188;2022-07-29T00:19:01;100240.72;;;23.06;53.49
67013;BME280;53926;47.406;19.188;2022-07-29T00:21:28;100235.19;;;23.02;53.55
67013;BME280;53926;47.406;19.188;2022-07-29T00:23:54;100238.06;;;23.06;53.93
67013;BME280;53926;47.406;19.188;2022-07-29T00:26:21;100238.66;;;23.03;53.91
67013;BME280;53926;47.406;19.188;2022-07-29T00:28:48;100244.31;;;22.96;53.99
67013;BME280;53926;47.406;19.188;2022-07-29T00:31:14;100237.53;;;22.90;54.40
67013;BME280;53926;47.406;19.188;2022-07-29T00:33:41;100237.94;;;22.97;54.01
67013;BME280;53926;47.406;19.188;2022-07-29T00:36:08;100232.16;;;22.95;54.84
67013;BME280;53926;47.406;19.188;2022-07-29T00:38:34;100232.97;;;22.77;54.50
67013;BME280;53926;47.406;19.188;2022-07-29T00:41:01;100239.34;;;22.76;54.25
67013;BME280;53926;47.406;19.188;2022-07-29T00:43:28;100237.81;;;22.89;53.88
67013;BME280;53926;47.406;19.188;2022-07-29T00:45:54;100234.47;;;22.83;54.31
67013;BME280;53926;47.406;19.188;2022-07-29T00:48:21;100230.91;;;22.74;54.17
67013;BME280;53926;47.406;19.188;2022-07-29T00:50:49;100233.75;;;22.77;54.42
67013;BME280;53926;47.406;19.188;2022-07-29T00:53:16;100239.84;;;22.78;54.10
67013;BME280;53926;47.406;19.188;2022-07-29T00:55:43;100230.41;;;22.72;54.49
67013;BME280;53926;47.406;19.188;2022-07-29T00:58:12;100237.19;;;22.78;53.81
67013;BME280;53926;47.406;19.188;2022-07-29T01:00:41;100245.84;;;22.70;54.18
67013;BME280;53926;47.406;19.188;2022-07-29T01:03:11;100232.41;;;22.80;53.95
67013;BME280;53926;47.406;19.188;2022-07-29T01:05:39;100237.09;;;22.69;54.16
67013;BME280;53926;47.406;19.188;2022-07-29T01:08:17;100228.03;;;22.70;54.15
67013;BME280;53926;47.406;19.188;2022-07-29T01:10:45;100230.19;;;22.68;54.18
67013;BME280;53926;47.406;19.188;2022-07-29T01:13:14;100236.84;;;22.65;54.66
67013;BME280;53926;47.406;19.188;2022-07-29T01:16:25;100234.88;;;22.57;54.61
67013;BME280;53926;47.406;19.188;2022-07-29T01:18:50;100230.78;;;22.65;54.63
67013;BME280;53926;47.406;19.188;2022-07-29T01:21:49;100234.28;;;22.60;54.89
67013;BME280;53926;47.406;19.188;2022-07-29T01:27:19;100242.56;;;22.59;55.01
67013;BME280;53926;47.406;19.188;2022-07-29T01:29:55;100233.87;;;22.53;55.25
67013;BME280;53926;47.406;19.188;2022-07-29T01:32:27;100235.25;;;22.50;55.53
67013;BME280;53926;47.406;19.188;2022-07-29T01:39:58;100232.66;;;22.45;55.83
67013;BME280;53926;47.406;19.188;2022-07-29T01:42:38;100236.47;;;22.39;55.75
67013;BME280;53926;47.406;19.188;2022-07-29T01:45:12;100242.50;;;22.45;56.40
67013;BME280;53926;47.406;19.188;2022-07-29T01:50:16;100242.41;;;22.50;55.76
67013;BME280;53926;47.406;19.188;2022-07-29T01:52:47;100239.69;;;22.36;56.29
67013;BME280;53926;47.406;19.188;2022-07-29T01:55:17;100240.28;;;22.33;56.35
67013;BME280;53926;47.406;19.188;2022-07-29T01:57:47;100243.84;;;22.42;56.01
67013;BME280;53926;47.406;19.188;2022-07-29T02:00:15;100238.72;;;22.32;56.94
67013;BME280;53926;47.406;19.188;2022-07-29T02:02:44;100254.25;;;22.20;56.69
67013;BME280;53926;47.406;19.188;2022-07-29T02:05:14;100240.69;;;22.21;57.37
67013;BME280;53926;47.406;19.188;2022-07-29T02:07:43;100240.25;;;22.14;57.75
67013;BME280;53926;47.406;19.188;2022-07-29T02:10:11;100236.28;;;22.11;57.40
67013;BME280;53926;47.406;19.188;2022-07-29T02:12:40;100240.37;;;22.04;57.68
67013;BME280;53926;47.406;19.188;2022-07-29T02:15:16;100236.22;;;21.97;57.91
67013;BME280;53926;47.406;19.188;2022-07-29T02:17:53;100240.81;;;22.11;57.82
67013;BME280;53926;47.406;19.188;2022-07-29T02:20:22;100236.13;;;21.84;58.75
67013;BME280;53926;47.406;19.188;2022-07-29T02:22:52;100239.06;;;21.82;58.61
67013;BME280;53926;47.406;19.188;2022-07-29T02:25:22;100239.44;;;21.46;60.56
67013;BME280;53926;47.406;19.188;2022-07-29T02:28:02;100240.50;;;21.50;59.64
67013;BME280;53926;47.406;19.188;2022-07-29T02:30:30;100240.72;;;21.54;59.77
67013;BME280;53926;47.406;19.188;2022-07-29T02:32:58;100240.09;;;21.62;59.81
67013;BME280;53926;47.406;19.188;2022-07-29T02:35:26;100242.97;;;21.66;59.60
67013;BME280;53926;47.406;19.188;2022-07-29T02:38:00;100237.56;;;21.52;59.93
67013;BME280;53926;47.406;19.188;2022-07-29T02:40:48;100245.00;;;21.50;60.05
67013;BME280;53926;47.406;19.188;2022-07-29T02:43:17;100243.66;;;21.52;60.10
67013;BME280;53926;47.406;19.188;2022-07-29T02:45:45;100244.00;;;21.40;60.14
67013;BME280;53926;47.406;19.188;2022-07-29T02:48:18;100245.53;;;21.47;60.19
67013;BME280;53926;47.406;19.188;2022-07-29T02:50:51;100239.72;;;21.44;60.36
67013;BME280;53926;47.406;19.188;2022-07-29T02:53:26;100239.44;;;21.46;60.49
67013;BME280;53926;47.406;19.188;2022-07-29T02:56:13;100236.06;;;21.40;60.80
67013;BME280;53926;47.406;19.188;2022-07-29T02:58:45;100238.78;;;21.35;61.40
67013;BME280;53926;47.406;19.188;2022-07-29T03:01:16;100242.78;;;21.03;62.26
67013;BME280;53926;47.406;19.188;2022-07-29T03:03:48;100231.25;;;20.89;63.38
67013;BME280;53926;47.406;19.188;2022-07-29T03:06:17;100238.59;;;20.97;62.62
67013;BME280;53926;47.406;19.188;2022-07-29T03:09:03;100231.91;;;21.05;62.44
67013;BME280;53926;47.406;19.188;2022-07-29T03:11:38;100234.97;;;20.88;62.51
67013;BME280;53926;47.406;19.188;2022-07-29T03:14:17;100237.00;;;20.96;62.28
67013;BME280;53926;47.406;19.188;2022-07-29T03:16:45;100238.50;;;21.07;61.56
67013;BME280;53926;47.406;19.188;2022-07-29T03:19:12;100229.16;;;21.15;61.04
67013;BME280;53926;47.406;19.188;2022-07-29T03:21:39;100230.69;;;21.21;61.06
67013;BME280;53926;47.406;19.188;2022-07-29T03:24:06;100230.75;;;21.16;61.62
67013;BME280;53926;47.406;19.188;2022-07-29T03:26:36;100234.25;;;21.12;61.61
67013;BME280;53926;47.406;19.188;2022-07-29T03:29:03;100229.22;;;21.10;61.61
67013;BME280;53926;47.406;19.188;2022-07-29T03:31:31;100227.37;;;21.05;62.10
67013;BME280;53926;47.406;19.188;2022-07-29T03:33:59;100232.69;;;21.05;61.50
67013;BME280;53926;47.406;19.188;2022-07-29T03:36:25;100234.47;;;21.15;61.58
67013;BME280;53926;47.406;19.188;2022-07-29T03:38:52;100233.47;;;21.35;61.91
67013;BME280;53926;47.406;19.188;2022-07-29T03:41:21;100233.91;;;21.18;62.37
67013;BME280;53926;47.406;19.188;2022-07-29T03:43:49;100232.59;;;21.16;62.58
67013;BME280;53926;47.406;19.188;2022-07-29T03:46:20;100237.88;;;21.21;62.47
67013;BME280;53926;47.406;19.188;2022-07-29T03:48:52;100236.50;;;21.23;62.56
67013;BME280;53926;47.406;19.188;2022-07-29T03:51:23;100237.75;;;21.31;62.28
67013;BME280;53926;47.406;19.188;2022-07-29T03:54:01;100238.44;;;21.18;62.63
67013;BME280;53926;47.406;19.188;2022-07-29T03:56:38;100251.22;;;21.35;62.66
67013;BME280;53926;47.406;19.188;2022-07-29T03:59:06;100247.00;;;21.34;62.53
67013;BME280;53926;47.406;19.188;2022-07-29T04:01:34;100250.25;;;21.25;61.32
67013;BME280;53926;47.406;19.188;2022-07-29T04:04:02;100250.06;;;21.17;61.90
67013;BME280;53926;47.406;19.188;2022-07-29T04:06:38;100255.16;;;21.37;61.42
67013;BME280;53926;47.406;19.188;2022-07-29T04:09:05;100257.84;;;21.61;60.92
67013;BME280;53926;47.406;19.188;2022-07-29T04:11:36;100261.19;;;21.72;60.57
67013;BME280;53926;47.406;19.188;2022-07-29T04:14:23;100256.63;;;21.78;60.73
67013;BME280;53926;47.406;19.188;2022-07-29T04:16:49;100257.75;;;22.15;58.83
67013;BME280;53926;47.406;19.188;2022-07-29T04:19:16;100253.50;;;22.14;59.27
67013;BME280;53926;47.406;19.188;2022-07-29T04:21:43;100260.09;;;22.17;59.22
67013;BME280;53926;47.406;19.188;2022-07-29T04:24:11;100259.66;;;22.34;57.78
67013;BME280;53926;47.406;19.188;2022-07-29T04:26:38;100258.28;;;22.55;57.87
67013;BME280;53926;47.406;19.188;2022-07-29T04:29:05;100259.19;;;22.64;56.47
67013;BME280;53926;47.406;19.188;2022-07-29T04:31:31;100245.78;;;22.89;55.76
67013;BME280;53926;47.406;19.188;2022-07-29T04:33:58;100250.22;;;22.93;56.14
67013;BME280;53926;47.406;19.188;2022-07-29T04:36:25;100249.53;;;23.76;55.19
67013;BME280;53926;47.406;19.188;2022-07-29T04:38:55;100249.81;;;24.39;51.95
67013;BME280;53926;47.406;19.188;2022-07-29T04:41:22;100250.03;;;24.65;52.59
67013;BME280;53926;47.406;19.188;2022-07-29T04:43:58;100258.19;;;24.09;51.95
67013;BME280;53926;47.406;19.188;2022-07-29T04:46:27;100249.63;;;25.03;50.52
67013;BME280;53926;47.406;19.188;2022-07-29T04:48:54;100257.09;;;25.24;48.91
67013;BME280;53926;47.406;19.188;2022-07-29T04:51:21;100254.53;;;25.50;48.10
67013;BME280;53926;47.406;19.188;2022-07-29T04:53:48;100257.31;;;25.05;48.76
67013;BME280;53926;47.406;19.188;2022-07-29T04:56:15;100256.66;;;25.79;47.13
67013;BME280;53926;47.406;19.188;2022-07-29T04:58:41;100258.72;;;26.96;44.31
67013;BME280;53926;47.406;19.188;2022-07-29T05:01:08;100260.75;;;26.90;44.17
67013;BME280;53926;47.406;19.188;2022-07-29T05:03:35;100263.59;;;28.22;41.18
67013;BME280;53926;47.406;19.188;2022-07-29T05:06:01;100259.88;;;29.52;38.95
67013;BME280;53926;47.406;19.188;2022-07-29T05:08:28;100262.78;;;30.24;36.96
67013;BME280;53926;47.406;19.188;2022-07-29T05:10:54;100255.25;;;30.74;36.87
67013;BME280;53926;47.406;19.188;2022-07-29T05:13:21;100248.47;;;29.18;38.15
67013;BME280;53926;47.406;19.188;2022-07-29T05:15:48;100252.56;;;28.24;40.10
67013;BME280;53926;47.406;19.188;2022-07-29T05:18:15;100257.87;;;29.61;38.76
67013;BME280;53926;47.406;19.188;2022-07-29T05:20:42;100266.69;;;31.15;34.66
67013;BME280;53926;47.406;19.188;2022-07-29T05:23:08;100259.66;;;30.51;35.31
67013;BME280;53926;47.406;19.188;2022-07-29T05:25:35;100263.53;;;30.97;34.63
67013;BME280;53926;47.406;19.188;2022-07-29T05:28:09;100262.88;;;31.16;34.38
67013;BME280;53926;47.406;19.188;2022-07-29T05:30:36;100263.94;;;32.80;31.77
67013;BME280;53926;47.406;19.188;2022-07-29T05:33:02;100258.78;;;30.46;35.28
67013;BME280;53926;47.406;19.188;2022-07-29T05:35:29;100259.44;;;29.25;37.99
67013;BME280;53926;47.406;19.188;2022-07-29T05:37:56;100262.84;;;30.00;36.25
67013;BME280;53926;47.406;19.188;2022-07-29T05:40:22;100257.87;;;31.50;34.61
67013;BME280;53926;47.406;19.188;2022-07-29T05:42:49;100259.75;;;32.01;33.32
67013;BME280;53926;47.406;19.188;2022-07-29T05:45:16;100251.59;;;33.26;32.05
67013;BME280;53926;47.406;19.188;2022-07-29T05:47:42;100259.16;;;32.93;31.51
67013;BME280;53926;47.406;19.188;2022-07-29T05:50:09;100257.28;;;33.21;31.21
67013;BME280;53926;47.406;19.188;2022-07-29T05:52:36;100263.47;;;32.98;32.24
67013;BME280;53926;47.406;19.188;2022-07-29T05:55:03;100262.16;;;33.95;31.29
67013;BME280;53926;47.406;19.188;2022-07-29T05:57:32;100254.31;;;34.17;29.20
67013;BME280;53926;47.406;19.188;2022-07-29T05:59:58;100261.03;;;32.27;32.35
67013;BME280;53926;47.406;19.188;2022-07-29T06:02:25;100268.75;;;33.18;30.25
67013;BME280;53926;47.406;19.188;2022-07-29T06:04:52;100260.81;;;30.37;34.71
67013;BME280;53926;47.406;19.188;2022-07-29T06:07:19;100271.41;;;31.70;33.16
67013;BME280;53926;47.406;19.188;2022-07-29T06:09:46;100268.94;;;32.00;33.07
67013;BME280;53926;47.406;19.188;2022-07-29T06:12:12;100264.66;;;32.35;33.38
67013;BME280;53926;47.406;19.188;2022-07-29T06:14:39;100266.41;;;31.20;35.58
67013;BME280;53926;47.406;19.188;2022-07-29T06:17:06;100260.06;;;31.61;34.38
67013;BME280;53926;47.406;19.188;2022-07-29T06:19:36;100259.66;;;32.56;33.06
67013;BME280;53926;47.406;19.188;2022-07-29T06:22:03;100271.91;;;32.96;31.48
67013;BME280;53926;47.406;19.188;2022-07-29T06:24:30;100271.25;;;31.63;34.45
67013;BME280;53926;47.406;19.188;2022-07-29T06:26:57;100268.69;;;32.44;33.80
67013;BME280;53926;47.406;19.188;2022-07-29T06:29:24;100265.59;;;33.12;32.06
67013;BME280;53926;47.406;19.188;2022-07-29T06:31:51;100274.34;;;33.05;31.42
67013;BME280;53926;47.406;19.188;2022-07-29T06:34:18;100276.81;;;32.68;32.12
67013;BME280;53926;47.406;19.188;2022-07-29T06:36:46;100284.59;;;32.96;31.40
67013;BME280;53926;47.406;19.188;2022-07-29T06:39:13;100279.25;;;32.14;33.20
67013;BME280;53926;47.406;19.188;2022-07-29T06:41:40;100281.72;;;34.53;31.05
67013;BME280;53926;47.406;19.188;2022-07-29T06:44:07;100285.59;;;34.52;30.03
67013;BME280;53926;47.406;19.188;2022-07-29T06:46:34;100281.66;;;34.83;28.92
67013;BME280;53926;47.406;19.188;2022-07-29T06:49:01;100283.72;;;33.92;31.32
67013;BME280;53926;47.406;19.188;2022-07-29T06:51:29;100284.94;;;35.66;28.04
67013;BME280;53926;47.406;19.188;2022-07-29T06:53:56;100281.53;;;35.76;27.05
67013;BME280;53926;47.406;19.188;2022-07-29T06:56:33;100278.06;;;38.17;25.14
67013;BME280;53926;47.406;19.188;2022-07-29T06:59:06;100284.13;;;35.58;28.10
67013;BME280;53926;47.406;19.188;2022-07-29T07:01:35;100278.84;;;35.84;27.56
67013;BME280;53926;47.406;19.188;2022-07-29T07:04:02;100275.47;;;36.05;28.29
67013;BME280;53926;47.406;19.188;2022-07-29T07:06:29;100282.91;;;37.70;25.75
67013;BME280;53926;47.406;19.188;2022-07-29T07:08:55;100287.94;;;35.50;28.13
67013;BME280;53926;47.406;19.188;2022-07-29T07:11:22;100285.66;;;36.69;27.19
67013;BME280;53926;47.406;19.188;2022-07-29T07:13:48;100275.13;;;37.75;26.21
67013;BME280;53926;47.406;19.188;2022-07-29T07:16:15;100283.50;;;35.83;28.13
67013;BME280;53926;47.406;19.188;2022-07-29T07:18:42;100274.47;;;36.81;26.53
67013;BME280;53926;47.406;19.188;2022-07-29T07:21:12;100275.03;;;37.97;25.04
67013;BME280;53926;47.406;19.188;2022-07-29T07:23:45;100279.06;;;36.34;26.69
67013;BME280;53926;47.406;19.188;2022-07-29T07:26:12;100264.37;;;37.14;27.09
67013;BME280;53926;47.406;19.188;2022-07-29T07:28:39;100279.25;;;38.72;23.85
67013;BME280;53926;47.406;19.188;2022-07-29T07:31:05;100278.16;;;38.59;24.44
67013;BME280;53926;47.406;19.188;2022-07-29T07:33:32;100282.94;;;36.40;27.17
67013;BME280;53926;47.406;19.188;2022-07-29T07:35:59;100278.69;;;33.90;30.79
67013;BME280;53926;47.406;19.188;2022-07-29T07:38:25;100271.72;;;33.32;31.91
67013;BME280;53926;47.406;19.188;2022-07-29T07:40:52;100277.22;;;35.68;28.40
67013;BME280;53926;47.406;19.188;2022-07-29T07:43:19;100278.06;;;35.79;28.05
67013;BME280;53926;47.406;19.188;2022-07-29T07:45:45;100269.56;;;33.18;31.35
67013;BME280;53926;47.406;19.188;2022-07-29T07:48:12;100268.97;;;34.91;29.33
67013;BME280;53926;47.406;19.188;2022-07-29T07:50:39;100271.19;;;34.78;30.00
67013;BME280;53926;47.406;19.188;2022-07-29T07:53:06;100265.44;;;37.60;26.66
67013;BME280;53926;47.406;19.188;2022-07-29T07:55:32;100270.38;;;38.61;25.00
67013;BME280;53926;47.406;19.188;2022-07-29T07:58:19;100272.56;;;35.06;29.34
67013;BME280;53926;47.406;19.188;2022-07-29T08:00:46;100263.78;;;37.91;26.53
67013;BME280;53926;47.406;19.188;2022-07-29T08:03:13;100263.47;;;37.68;25.02
67013;BME280;53926;47.406;19.188;2022-07-29T08:05:42;100265.69;;;39.48;24.31
67013;BME280;53926;47.406;19.188;2022-07-29T08:08:08;100261.66;;;36.78;26.91
67013;BME280;53926;47.406;19.188;2022-07-29T08:10:35;100262.44;;;37.04;26.16
67013;BME280;53926;47.406;19.188;2022-07-29T08:13:25;100264.75;;;37.24;26.60
67013;BME280;53926;47.406;19.188;2022-07-29T08:15:54;100259.06;;;38.66;24.75
67013;BME280;53926;47.406;19.188;2022-07-29T08:18:29;100261.56;;;38.95;24.37
67013;BME280;53926;47.406;19.188;2022-07-29T08:20:57;100258.22;;;38.76;24.09
67013;BME280;53926;47.406;19.188;2022-07-29T08:23:24;100263.97;;;36.69;26.44
67013;BME280;53926;47.406;19.188;2022-07-29T08:25:50;100263.53;;;36.38;27.08
67013;BME280;53926;47.406;19.188;2022-07-29T08:28:20;100260.44;;;36.29;26.98
67013;BME280;53926;47.406;19.188;2022-07-29T08:30:51;100255.22;;;38.00;25.15
67013;BME280;53926;47.406;19.188;2022-07-29T08:33:18;100259.66;;;37.51;26.72
67013;BME280;53926;47.406;19.188;2022-07-29T08:35:44;100259.34;;;36.98;26.98
67013;BME280;53926;47.406;19.188;2022-07-29T08:38:11;100258.91;;;37.18;25.47
67013;BME280;53926;47.406;19.188;2022-07-29T08:40:39;100258.06;;;37.71;25.09
67013;BME280;53926;47.406;19.188;2022-07-29T08:43:07;100247.75;;;38.11;25.92
67013;BME280;53926;47.406;19.188;2022-07-29T08:45:44;100258.81;;;37.61;24.96
67013;BME280;53926;47.406;19.188;2022-07-29T08:48:15;100252.53;;;38.56;24.54
67013;BME280;53926;47.406;19.188;2022-07-29T08:50:42;100249.91;;;37.61;25.14
67013;BME280;53926;47.406;19.188;2022-07-29T08:53:14;100253.84;;;38.34;24.19
67013;BME280;53926;47.406;19.188;2022-07-29T08:55:47;100243.38;;;38.36;23.91
67013;BME280;53926;47.406;19.188;2022-07-29T08:58:14;100245.78;;;37.02;25.05
67013;BME280;53926;47.406;19.188;2022-07-29T09:00:51;100245.22;;;36.03;26.10
67013;BME280;53926;47.406;19.188;2022-07-29T09:03:19;100245.03;;;36.91;25.61
67013;BME280;53926;47.406;19.188;2022-07-29T09:05:47;100240.81;;;35.62;26.61
67013;BME280;53926;47.406;19.188;2022-07-29T09:08:15;100243.31;;;36.10;26.78
67013;BME280;53926;47.406;19.188;2022-07-29T09:10:43;100237.16;;;35.29;27.91
67013;BME280;53926;47.406;19.188;2022-07-29T09:13:10;100242.06;;;35.13;27.57
67013;BME280;53926;47.406;19.188;2022-07-29T09:15:36;100237.94;;;36.14;27.33
67013;BME280;53926;47.406;19.188;2022-07-29T09:18:03;100240.22;;;36.08;27.33
67013;BME280;53926;47.406;19.188;2022-07-29T09:20:30;100241.13;;;36.56;25.20
67013;BME280;53926;47.406;19.188;2022-07-29T09:23:16;100227.19;;;36.79;24.71
67013;BME280;53926;47.406;19.188;2022-07-29T09:25:49;100236.41;;;36.20;25.60
67013;BME280;53926;47.406;19.188;2022-07-29T09:28:17;100233.41;;;34.89;26.59
67013;BME280;53926;47.406;19.188;2022-07-29T09:30:55;100227.50;;;35.28;26.02
67013;BME280;53926;47.406;19.188;2022-07-29T09:33:23;100229.28;;;35.13;26.65
67013;BME280;53926;47.406;19.188;2022-07-29T09:36:07;100223.22;;;35.27;26.92
67013;BME280;53926;47.406;19.188;2022-07-29T09:38:35;100221.03;;;35.51;26.57
67013;BME280;53926;47.406;19.188;2022-07-29T09:41:04;100215.78;;;35.90;25.06
67013;BME280;53926;47.406;19.188;2022-07-29T09:43:33;100206.16;;;36.00;26.44
67013;BME280;53926;47.406;19.188;2022-07-29T09:46:10;100210.88;;;36.43;25.60
67013;BME280;53926;47.406;19.188;2022-07-29T09:48:38;100205.81;;;36.27;25.56
67013;BME280;53926;47.406;19.188;2022-07-29T09:51:04;100208.44;;;35.91;24.38
67013;BME280;53926;47.406;19.188;2022-07-29T09:53:36;100206.75;;;35.57;25.66
67013;BME280;53926;47.406;19.188;2022-07-29T09:56:04;100199.47;;;35.02;26.05
67013;BME280;53926;47.406;19.188;2022-07-29T09:58:31;100202.28;;;35.24;26.21
67013;BME280;53926;47.406;19.188;2022-07-29T10:01:00;100193.84;;;36.49;25.34
67013;BME280;53926;47.406;19.188;2022-07-29T10:03:27;100201.28;;;35.50;25.81
67013;BME280;53926;47.406;19.188;2022-07-29T10:06:11;100196.81;;;35.90;24.82
67013;BME280;53926;47.406;19.188;2022-07-29T10:08:41;100197.31;;;36.61;23.32
67013;BME280;53926;47.406;19.188;2022-07-29T10:11:13;100186.84;;;36.74;22.75
67013;BME280;53926;47.406;19.188;2022-07-29T10:13:42;100187.25;;;36.43;23.59
67013;BME280;53926;47.406;19.188;2022-07-29T10:16:09;100184.16;;;36.77;23.71
67013;BME280;53926;47.406;19.188;2022-07-29T10:18:40;100182.19;;;36.38;23.00
67013;BME280;53926;47.406;19.188;2022-07-29T10:21:07;100180.28;;;36.64;23.35
67013;BME280;53926;47.406;19.188;2022-07-29T10:23:36;100184.13;;;36.74;23.30
67013;BME280;53926;47.406;19.188;2022-07-29T10:26:12;100182.94;;;37.07;22.91
67013;BME280;53926;47.406;19.188;2022-07-29T10:28:39;100184.41;;;35.08;24.54
67013;BME280;53926;47.406;19.188;2022-07-29T10:31:08;100186.84;;;36.30;23.03
67013;BME280;53926;47.406;19.188;2022-07-29T10:36:53;100181.06;;;36.46;22.49
67013;BME280;53926;47.406;19.188;2022-07-29T10:39:40;100171.84;;;37.79;21.98
67013;BME280;53926;47.406;19.188;2022-07-29T10:44:43;100166.19;;;37.45;22.67
67013;BME280;53926;47.406;19.188;2022-07-29T10:47:30;100163.31;;;37.73;20.71
67013;BME280;53926;47.406;19.188;2022-07-29T10:50:03;100170.56;;;35.14;23.67
67013;BME280;53926;47.406;19.188;2022-07-29T10:55:36;100173.69;;;36.43;23.14
67013;BME280;53926;47.406;19.188;2022-07-29T10:58:22;100157.59;;;35.52;22.99
67013;BME280;53926;47.406;19.188;2022-07-29T11:00:53;100160.69;;;34.84;24.72
67013;BME280;53926;47.406;19.188;2022-07-29T11:06:15;100147.72;;;36.35;22.47
67013;BME280;53926;47.406;19.188;2022-07-29T11:09:17;100148.84;;;36.74;23.30
67013;BME280;53926;47.406;19.188;2022-07-29T11:12:00;100139.59;;;36.17;23.30
67013;BME280;53926;47.406;19.188;2022-07-29T11:17:18;100145.53;;;35.31;24.11
67013;BME280;53926;47.406;19.188;2022-07-29T11:19:47;100135.72;;;34.12;25.61
67013;BME280;53926;47.406;19.188;2022-07-29T11:22:35;100142.31;;;35.07;25.94
67013;BME280;53926;47.406;19.188;2022-07-29T11:25:16;100138.53;;;35.26;23.84
67013;BME280;53926;47.406;19.188;2022-07-29T11:28:12;100131.53;;;35.25;23.67
67013;BME280;53926;47.406;19.188;2022-07-29T11:30:53;100134.16;;;36.53;23.46
67013;BME280;53926;47.406;19.188;2022-07-29T11:33:31;100123.97;;;37.26;24.34
67013;BME280;53926;47.406;19.188;2022-07-29T11:36:18;100113.91;;;37.15;22.25
67013;BME280;53926;47.406;19.188;2022-07-29T11:39:25;100112.06;;;36.76;21.47
67013;BME280;53926;47.406;19.188;2022-07-29T11:50:29;100112.81;;;33.27;27.33
67013;BME280;53926;47.406;19.188;2022-07-29T11:52:59;100110.34;;;33.45;26.09
67013;BME280;53926;47.406;19.188;2022-07-29T11:55:36;100106.00;;;33.71;26.29
67013;BME280;53926;47.406;19.188;2022-07-29T11:58:21;100101.44;;;34.16;26.31
67013;BME280;53926;47.406;19.188;2022-07-29T12:01:13;100101.91;;;35.58;24.29
67013;BME280;53926;47.406;19.188;2022-07-29T12:03:40;100103.09;;;35.71;24.62
67013;BME280;53926;47.406;19.188;2022-07-29T12:06:13;100090.00;;;36.56;24.80
67013;BME280;53926;47.406;19.188;2022-07-29T12:08:46;100094.63;;;36.77;22.48
67013;BME280;53926;47.406;19.188;2022-07-29T12:11:18;100100.09;;;36.45;23.43
67013;BME280;53926;47.406;19.188;2022-07-29T12:13:48;100087.81;;;37.43;22.83
67013;BME280;53926;47.406;19.188;2022-07-29T12:16:15;100087.56;;;37.12;22.16
67013;BME280;53926;47.406;19.188;2022-07-29T12:18:57;100089.25;;;36.34;22.63
67013;BME280;53926;47.406;19.188;2022-07-29T12:21:25;100085.34;;;36.60;22.49
67013;BME280;53926;47.406;19.188;2022-07-29T12:23:55;100080.84;;;38.02;21.87
67013;BME280;53926;47.406;19.188;2022-07-29T12:26:30;100074.53;;;37.56;21.82
67013;BME280;53926;47.406;19.188;2022-07-29T12:28:59;100079.34;;;37.93;20.92
67013;BME280;53926;47.406;19.188;2022-07-29T12:31:40;100073.38;;;38.13;21.28
67013;BME280;53926;47.406;19.188;2022-07-29T12:34:12;100066.41;;;37.49;22.34
67013;BME280;53926;47.406;19.188;2022-07-29T12:36:40;100065.56;;;36.67;22.41
67013;BME280;53926;47.406;19.188;2022-07-29T12:39:08;100062.41;;;35.42;23.16
67013;BME280;53926;47.406;19.188;2022-07-29T12:41:36;100054.78;;;36.06;24.20
67013;BME280;53926;47.406;19.188;2022-07-29T12:44:02;100059.44;;;36.12;22.40
67013;BME280;53926;47.406;19.188;2022-07-29T12:46:29;100060.91;;;36.71;23.03
67013;BME280;53926;47.406;19.188;2022-07-29T12:48:56;100054.25;;;37.04;21.99
67013;BME280;53926;47.406;19.188;2022-07-29T12:51:40;100039.72;;;37.96;21.31
67013;BME280;53926;47.406;19.188;2022-07-29T12:54:12;100035.44;;;37.95;21.48
67013;BME280;53926;47.406;19.188;2022-07-29T12:56:43;100049.06;;;38.37;20.83
67013;BME280;53926;47.406;19.188;2022-07-29T12:59:20;100033.56;;;38.72;20.44
67013;BME280;53926;47.406;19.188;2022-07-29T13:01:50;100042.22;;;38.21;21.58
67013;BME280;53926;47.406;19.188;2022-07-29T13:04:25;100041.25;;;37.41;21.79
67013;BME280;53926;47.406;19.188;2022-07-29T13:07:23;100031.88;;;38.05;22.40
67013;BME280;53926;47.406;19.188;2022-07-29T13:10:16;100032.09;;;37.10;21.23
67013;BME280;53926;47.406;19.188;2022-07-29T13:15:32;100025.94;;;37.69;21.47
67013;BME280;53926;47.406;19.188;2022-07-29T13:17:59;100017.81;;;38.14;21.80
67013;BME280;53926;47.406;19.188;2022-07-29T13:20:27;100022.84;;;38.16;20.32
67013;BME280;53926;47.406;19.188;2022-07-29T13:23:00;100015.09;;;38.56;19.99
67013;BME280;53926;47.406;19.188;2022-07-29T13:25:31;100010.50;;;37.58;20.42
67013;BME280;53926;47.406;19.188;2022-07-29T13:27:59;100013.34;;;37.93;20.83
67013;BME280;53926;47.406;19.188;2022-07-29T13:30:25;100007.47;;;37.49;20.30
67013;BME280;53926;47.406;19.188;2022-07-29T13:32:52;100003.47;;;36.98;20.79
67013;BME280;53926;47.406;19.188;2022-07-29T13:35:19;100009.06;;;36.22;21.70